sensor_id;sensor_type;location;lat;lon;timestamp;P1;durP1;ratioP1;P2;durP2;ratioP2
22924;SDS011;11628;51.072;3.712;2022-12-18T00:00:59;109.80;;;65.05;;
22924;SDS011;11628;51.072;3.712;2022-12-18T00:03:25;106.28;;;66.57;;
22924;SDS011;11628;51.072;3.712;2022-12-18T00:05:51;103.80;;;66.07;;
22924;SDS011;11628;51.072;3.712;2022-12-18T00:08:17;111.85;;;71.03;;
22924;SDS011;11628;51.072;3.712;2022-12-18T00:10:43;105.57;;;64.72;;
22924;SDS011;11628;51.072;3.712;2022-12-18T00:13:10;95.90;;;61.35;;
22924;SDS011;11628;51.072;3.712;2022-12-18T00:15:36;97.32;;;61.03;;
22924;SDS011;11628;51.072;3.712;2022-12-18T00:18:03;96.80;;;59.30;;
22924;SDS011;11628;51.072;3.712;2022-12-18T00:20:30;91.35;;;59.63;;
22924;SDS011;11628;51.072;3.712;2022-12-18T00:22:56;94.43;;;57.70;;
22924;SDS011;11628;51.072;3.712;2022-12-18T00:25:21;95.28;;;59.05;;
22924;SDS011;11628;51.072;3.712;2022-12-18T00:27:47;94.93;;;57.05;;
22924;SDS011;11628;51.072;3.712;2022-12-18T00:30:13;99.15;;;58.03;;
22924;SDS011;11628;51.072;3.712;2022-12-18T00:32:39;97.32;;;56.83;;
22924;SDS011;11628;51.072;3.712;2022-12-18T00:35:05;92.10;;;55.03;;
22924;SDS011;11628;51.072;3.712;2022-12-18T00:37:35;89.10;;;54.85;;
22924;SDS011;11628;51.072;3.712;2022-12-18T00:40:01;89.90;;;53.10;;
22924;SDS011;11628;51.072;3.712;2022-12-18T00:42:27;88.15;;;52.85;;
22924;SDS011;11628;51.072;3.712;2022-12-18T00:45:12;87.97;;;50.95;;
22924;SDS011;11628;51.072;3.712;2022-12-18T00:47:37;85.60;;;51.00;;
22924;SDS011;11628;51.072;3.712;2022-12-18T00:50:03;86.45;;;50.78;;
22924;SDS011;11628;51.072;3.712;2022-12-18T00:52:29;89.07;;;51.65;;
22924;SDS011;11628;51.072;3.712;2022-12-18T00:54:55;92.90;;;50.83;;
22924;SDS011;11628;51.072;3.712;2022-12-18T00:57:21;85.00;;;50.20;;
22924;SDS011;11628;51.072;3.712;2022-12-18T00:59:46;87.78;;;49.95;;
22924;SDS011;11628;51.072;3.712;2022-12-18T01:02:12;84.80;;;49.78;;
22924;SDS011;11628;51.072;3.712;2022-12-18T01:04:38;83.63;;;49.15;;
22924;SDS011;11628;51.072;3.712;2022-12-18T01:07:04;85.85;;;48.85;;
22924;SDS011;11628;51.072;3.712;2022-12-18T01:09:30;89.07;;;51.75;;
22924;SDS011;11628;51.072;3.712;2022-12-18T01:11:55;90.60;;;51.03;;
22924;SDS011;11628;51.072;3.712;2022-12-18T01:14:21;85.60;;;48.95;;
22924;SDS011;11628;51.072;3.712;2022-12-18T01:16:47;78.57;;;46.33;;
22924;SDS011;11628;51.072;3.712;2022-12-18T01:19:12;85.15;;;49.95;;
22924;SDS011;11628;51.072;3.712;2022-12-18T01:21:38;86.78;;;49.22;;
22924;SDS011;11628;51.072;3.712;2022-12-18T01:24:04;90.03;;;50.38;;
22924;SDS011;11628;51.072;3.712;2022-12-18T01:26:30;89.45;;;49.65;;
22924;SDS011;11628;51.072;3.712;2022-12-18T01:28:56;85.43;;;47.58;;
22924;SDS011;11628;51.072;3.712;2022-12-18T01:31:23;88.40;;;50.53;;
22924;SDS011;11628;51.072;3.712;2022-12-18T01:33:50;91.50;;;50.75;;
22924;SDS011;11628;51.072;3.712;2022-12-18T01:36:21;82.43;;;46.45;;
22924;SDS011;11628;51.072;3.712;2022-12-18T01:38:49;81.25;;;45.10;;
22924;SDS011;11628;51.072;3.712;2022-12-18T01:41:16;83.03;;;46.60;;
22924;SDS011;11628;51.072;3.712;2022-12-18T01:46:10;79.20;;;45.63;;
22924;SDS011;11628;51.072;3.712;2022-12-18T01:48:36;76.35;;;45.00;;
22924;SDS011;11628;51.072;3.712;2022-12-18T01:51:02;82.55;;;45.60;;
22924;SDS011;11628;51.072;3.712;2022-12-18T01:53:29;79.95;;;45.63;;
22924;SDS011;11628;51.072;3.712;2022-12-18T01:55:56;80.07;;;45.08;;
22924;SDS011;11628;51.072;3.712;2022-12-18T01:59:08;80.13;;;45.70;;
22924;SDS011;11628;51.072;3.712;2022-12-18T02:01:13;77.05;;;44.50;;
22924;SDS011;11628;51.072;3.712;2022-12-18T02:03:42;82.18;;;44.15;;
22924;SDS011;11628;51.072;3.712;2022-12-18T02:06:29;74.90;;;43.08;;
22924;SDS011;11628;51.072;3.712;2022-12-18T02:09:06;73.28;;;42.88;;
22924;SDS011;11628;51.072;3.712;2022-12-18T02:17:18;69.60;;;39.10;;
22924;SDS011;11628;51.072;3.712;2022-12-18T02:20:05;68.95;;;39.20;;
22924;SDS011;11628;51.072;3.712;2022-12-18T02:22:53;69.05;;;38.30;;
22924;SDS011;11628;51.072;3.712;2022-12-18T02:28:11;70.20;;;40.88;;
22924;SDS011;11628;51.072;3.712;2022-12-18T02:30:41;72.90;;;41.75;;
22924;SDS011;11628;51.072;3.712;2022-12-18T02:33:09;67.07;;;40.33;;
22924;SDS011;11628;51.072;3.712;2022-12-18T02:35:37;67.70;;;38.75;;
22924;SDS011;11628;51.072;3.712;2022-12-18T02:38:05;62.67;;;37.28;;
22924;SDS011;11628;51.072;3.712;2022-12-18T02:40:31;67.63;;;40.40;;
22924;SDS011;11628;51.072;3.712;2022-12-18T02:43:08;71.35;;;42.10;;
22924;SDS011;11628;51.072;3.712;2022-12-18T02:45:35;69.10;;;39.85;;
22924;SDS011;11628;51.072;3.712;2022-12-18T02:48:00;68.32;;;39.83;;
22924;SDS011;11628;51.072;3.712;2022-12-18T02:50:30;69.88;;;41.15;;
22924;SDS011;11628;51.072;3.712;2022-12-18T03:00:40;63.30;;;37.65;;
22924;SDS011;11628;51.072;3.712;2022-12-18T03:05:47;67.35;;;38.03;;
22924;SDS011;11628;51.072;3.712;2022-12-18T03:08:21;67.75;;;37.90;;
22924;SDS011;11628;51.072;3.712;2022-12-18T03:11:01;67.57;;;37.70;;
22924;SDS011;11628;51.072;3.712;2022-12-18T03:13:34;66.75;;;38.75;;
22924;SDS011;11628;51.072;3.712;2022-12-18T03:16:25;64.70;;;38.05;;
22924;SDS011;11628;51.072;3.712;2022-12-18T03:19:14;53.25;;;30.60;;
22924;SDS011;11628;51.072;3.712;2022-12-18T03:21:45;69.85;;;39.85;;
22924;SDS011;11628;51.072;3.712;2022-12-18T03:24:12;66.03;;;38.30;;
22924;SDS011;11628;51.072;3.712;2022-12-18T03:26:44;68.40;;;37.40;;
22924;SDS011;11628;51.072;3.712;2022-12-18T03:29:12;62.72;;;38.10;;
22924;SDS011;11628;51.072;3.712;2022-12-18T03:31:45;66.00;;;38.20;;
22924;SDS011;11628;51.072;3.712;2022-12-18T03:34:26;60.47;;;36.67;;
22924;SDS011;11628;51.072;3.712;2022-12-18T03:36:56;65.78;;;38.08;;
22924;SDS011;11628;51.072;3.712;2022-12-18T03:39:22;62.10;;;37.15;;
22924;SDS011;11628;51.072;3.712;2022-12-18T03:47:16;65.30;;;37.15;;
22924;SDS011;11628;51.072;3.712;2022-12-18T03:50:12;64.57;;;37.47;;
22924;SDS011;11628;51.072;3.712;2022-12-18T03:52:45;62.22;;;36.10;;
22924;SDS011;11628;51.072;3.712;2022-12-18T03:55:17;64.10;;;38.70;;
22924;SDS011;11628;51.072;3.712;2022-12-18T03:57:44;60.72;;;37.00;;
22924;SDS011;11628;51.072;3.712;2022-12-18T04:00:12;65.93;;;38.95;;
22924;SDS011;11628;51.072;3.712;2022-12-18T04:02:44;66.13;;;37.50;;
22924;SDS011;11628;51.072;3.712;2022-12-18T04:05:16;61.58;;;35.88;;
22924;SDS011;11628;51.072;3.712;2022-12-18T04:07:44;68.03;;;37.75;;
22924;SDS011;11628;51.072;3.712;2022-12-18T04:10:13;64.13;;;37.25;;
22924;SDS011;11628;51.072;3.712;2022-12-18T04:12:40;56.22;;;33.33;;
22924;SDS011;11628;51.072;3.712;2022-12-18T04:15:07;54.70;;;32.85;;
22924;SDS011;11628;51.072;3.712;2022-12-18T04:17:34;59.33;;;33.60;;
22924;SDS011;11628;51.072;3.712;2022-12-18T04:19:59;57.08;;;34.35;;
22924;SDS011;11628;51.072;3.712;2022-12-18T04:22:26;52.10;;;30.98;;
22924;SDS011;11628;51.072;3.712;2022-12-18T04:24:52;51.47;;;30.10;;
22924;SDS011;11628;51.072;3.712;2022-12-18T04:27:18;54.42;;;31.88;;
22924;SDS011;11628;51.072;3.712;2022-12-18T04:29:44;57.55;;;33.03;;
22924;SDS011;11628;51.072;3.712;2022-12-18T04:32:10;58.72;;;32.58;;
22924;SDS011;11628;51.072;3.712;2022-12-18T04:34:35;59.25;;;32.85;;
22924;SDS011;11628;51.072;3.712;2022-12-18T04:37:01;51.80;;;31.67;;
22924;SDS011;11628;51.072;3.712;2022-12-18T04:39:27;55.55;;;32.75;;
22924;SDS011;11628;51.072;3.712;2022-12-18T04:41:53;55.92;;;31.42;;
22924;SDS011;11628;51.072;3.712;2022-12-18T04:44:18;53.45;;;32.05;;
22924;SDS011;11628;51.072;3.712;2022-12-18T04:46:44;53.15;;;31.10;;
22924;SDS011;11628;51.072;3.712;2022-12-18T04:49:10;52.65;;;30.77;;
22924;SDS011;11628;51.072;3.712;2022-12-18T04:51:36;53.70;;;31.13;;
22924;SDS011;11628;51.072;3.712;2022-12-18T04:54:02;50.30;;;30.85;;
22924;SDS011;11628;51.072;3.712;2022-12-18T04:56:28;56.03;;;32.60;;
22924;SDS011;11628;51.072;3.712;2022-12-18T04:58:55;51.08;;;30.65;;
22924;SDS011;11628;51.072;3.712;2022-12-18T05:01:21;53.13;;;31.67;;
22924;SDS011;11628;51.072;3.712;2022-12-18T05:03:47;52.85;;;31.40;;
22924;SDS011;11628;51.072;3.712;2022-12-18T05:06:13;49.55;;;30.08;;
22924;SDS011;11628;51.072;3.712;2022-12-18T05:08:40;56.13;;;32.28;;
22924;SDS011;11628;51.072;3.712;2022-12-18T05:11:07;51.67;;;31.83;;
22924;SDS011;11628;51.072;3.712;2022-12-18T05:13:34;51.10;;;31.73;;
22924;SDS011;11628;51.072;3.712;2022-12-18T05:16:00;48.88;;;30.35;;
22924;SDS011;11628;51.072;3.712;2022-12-18T05:18:27;53.00;;;31.17;;
22924;SDS011;11628;51.072;3.712;2022-12-18T05:20:54;52.00;;;30.92;;
22924;SDS011;11628;51.072;3.712;2022-12-18T05:23:20;50.60;;;29.58;;
22924;SDS011;11628;51.072;3.712;2022-12-18T05:25:53;52.40;;;30.92;;
22924;SDS011;11628;51.072;3.712;2022-12-18T05:28:22;50.70;;;30.83;;
22924;SDS011;11628;51.072;3.712;2022-12-18T05:30:49;54.35;;;32.13;;
22924;SDS011;11628;51.072;3.712;2022-12-18T05:33:16;50.20;;;29.85;;
22924;SDS011;11628;51.072;3.712;2022-12-18T05:35:43;54.25;;;31.52;;
22924;SDS011;11628;51.072;3.712;2022-12-18T05:38:09;51.08;;;30.05;;
22924;SDS011;11628;51.072;3.712;2022-12-18T05:40:35;49.03;;;29.85;;
22924;SDS011;11628;51.072;3.712;2022-12-18T05:43:02;49.05;;;29.20;;
22924;SDS011;11628;51.072;3.712;2022-12-18T05:45:27;47.85;;;29.05;;
22924;SDS011;11628;51.072;3.712;2022-12-18T05:47:53;50.40;;;29.60;;
22924;SDS011;11628;51.072;3.712;2022-12-18T05:50:19;52.30;;;28.92;;
22924;SDS011;11628;51.072;3.712;2022-12-18T05:52:45;49.28;;;28.73;;
22924;SDS011;11628;51.072;3.712;2022-12-18T05:55:10;46.05;;;27.45;;
22924;SDS011;11628;51.072;3.712;2022-12-18T05:57:36;45.30;;;29.02;;
22924;SDS011;11628;51.072;3.712;2022-12-18T06:00:02;51.05;;;29.33;;
22924;SDS011;11628;51.072;3.712;2022-12-18T06:02:28;45.03;;;28.05;;
22924;SDS011;11628;51.072;3.712;2022-12-18T06:04:54;47.70;;;28.20;;
22924;SDS011;11628;51.072;3.712;2022-12-18T06:07:19;44.40;;;27.73;;
22924;SDS011;11628;51.072;3.712;2022-12-18T06:09:45;45.33;;;26.67;;
22924;SDS011;11628;51.072;3.712;2022-12-18T06:12:11;41.90;;;26.45;;
22924;SDS011;11628;51.072;3.712;2022-12-18T06:14:36;45.80;;;27.25;;
22924;SDS011;11628;51.072;3.712;2022-12-18T06:17:02;45.83;;;26.88;;
22924;SDS011;11628;51.072;3.712;2022-12-18T06:19:28;42.38;;;26.17;;
22924;SDS011;11628;51.072;3.712;2022-12-18T06:21:53;40.33;;;26.70;;
22924;SDS011;11628;51.072;3.712;2022-12-18T06:24:19;43.55;;;26.60;;
22924;SDS011;11628;51.072;3.712;2022-12-18T06:26:45;41.25;;;25.95;;
22924;SDS011;11628;51.072;3.712;2022-12-18T06:29:11;43.10;;;26.33;;
22924;SDS011;11628;51.072;3.712;2022-12-18T06:31:36;38.75;;;24.38;;
22924;SDS011;11628;51.072;3.712;2022-12-18T06:34:03;39.50;;;24.95;;
22924;SDS011;11628;51.072;3.712;2022-12-18T06:36:29;38.67;;;24.50;;
22924;SDS011;11628;51.072;3.712;2022-12-18T06:38:55;43.83;;;26.33;;
22924;SDS011;11628;51.072;3.712;2022-12-18T06:41:21;40.03;;;23.92;;
22924;SDS011;11628;51.072;3.712;2022-12-18T06:43:47;38.15;;;24.40;;
22924;SDS011;11628;51.072;3.712;2022-12-18T06:46:13;38.65;;;23.92;;
22924;SDS011;11628;51.072;3.712;2022-12-18T06:48:39;41.90;;;25.13;;
22924;SDS011;11628;51.072;3.712;2022-12-18T06:51:05;38.92;;;23.92;;
22924;SDS011;11628;51.072;3.712;2022-12-18T06:53:31;35.28;;;22.35;;
22924;SDS011;11628;51.072;3.712;2022-12-18T06:56:01;36.45;;;23.30;;
22924;SDS011;11628;51.072;3.712;2022-12-18T06:58:28;34.95;;;22.60;;
22924;SDS011;11628;51.072;3.712;2022-12-18T07:00:59;38.08;;;23.67;;
22924;SDS011;11628;51.072;3.712;2022-12-18T07:03:25;36.50;;;23.08;;
22924;SDS011;11628;51.072;3.712;2022-12-18T07:05:51;36.78;;;22.85;;
22924;SDS011;11628;51.072;3.712;2022-12-18T07:08:17;34.20;;;21.52;;
22924;SDS011;11628;51.072;3.712;2022-12-18T07:10:43;37.08;;;23.27;;
22924;SDS011;11628;51.072;3.712;2022-12-18T07:13:09;33.10;;;21.58;;
22924;SDS011;11628;51.072;3.712;2022-12-18T07:15:35;32.67;;;21.38;;
22924;SDS011;11628;51.072;3.712;2022-12-18T07:18:01;33.33;;;21.27;;
22924;SDS011;11628;51.072;3.712;2022-12-18T07:20:27;30.45;;;20.70;;
22924;SDS011;11628;51.072;3.712;2022-12-18T07:22:53;33.08;;;21.73;;
22924;SDS011;11628;51.072;3.712;2022-12-18T07:25:18;31.15;;;20.33;;
22924;SDS011;11628;51.072;3.712;2022-12-18T07:27:44;32.22;;;21.08;;
22924;SDS011;11628;51.072;3.712;2022-12-18T07:30:10;32.63;;;21.45;;
22924;SDS011;11628;51.072;3.712;2022-12-18T07:32:36;33.15;;;20.73;;
22924;SDS011;11628;51.072;3.712;2022-12-18T07:35:01;30.67;;;20.70;;
22924;SDS011;11628;51.072;3.712;2022-12-18T07:37:27;31.20;;;20.30;;
22924;SDS011;11628;51.072;3.712;2022-12-18T07:39:53;29.65;;;20.23;;
22924;SDS011;11628;51.072;3.712;2022-12-18T07:42:18;30.63;;;20.13;;
22924;SDS011;11628;51.072;3.712;2022-12-18T07:44:56;31.35;;;20.25;;
22924;SDS011;11628;51.072;3.712;2022-12-18T07:47:23;31.30;;;20.35;;
22924;SDS011;11628;51.072;3.712;2022-12-18T07:49:49;31.08;;;19.77;;
22924;SDS011;11628;51.072;3.712;2022-12-18T07:52:15;31.63;;;19.95;;
22924;SDS011;11628;51.072;3.712;2022-12-18T07:54:41;28.30;;;18.58;;
22924;SDS011;11628;51.072;3.712;2022-12-18T07:57:07;29.23;;;19.15;;
22924;SDS011;11628;51.072;3.712;2022-12-18T07:59:34;31.77;;;19.52;;
22924;SDS011;11628;51.072;3.712;2022-12-18T08:02:00;27.48;;;17.75;;
22924;SDS011;11628;51.072;3.712;2022-12-18T08:04:25;30.13;;;18.38;;
22924;SDS011;11628;51.072;3.712;2022-12-18T08:06:51;24.80;;;17.67;;
22924;SDS011;11628;51.072;3.712;2022-12-18T08:09:17;27.50;;;17.58;;
22924;SDS011;11628;51.072;3.712;2022-12-18T08:11:43;28.85;;;17.60;;
22924;SDS011;11628;51.072;3.712;2022-12-18T08:14:09;27.27;;;18.15;;
22924;SDS011;11628;51.072;3.712;2022-12-18T08:16:35;24.95;;;17.30;;
22924;SDS011;11628;51.072;3.712;2022-12-18T08:19:01;25.20;;;17.02;;
22924;SDS011;11628;51.072;3.712;2022-12-18T08:21:28;29.65;;;18.08;;
22924;SDS011;11628;51.072;3.712;2022-12-18T08:23:56;28.50;;;17.50;;
22924;SDS011;11628;51.072;3.712;2022-12-18T08:26:24;28.67;;;18.90;;
22924;SDS011;11628;51.072;3.712;2022-12-18T08:28:51;27.02;;;17.23;;
22924;SDS011;11628;51.072;3.712;2022-12-18T08:31:19;27.17;;;17.55;;
22924;SDS011;11628;51.072;3.712;2022-12-18T08:33:47;27.33;;;17.45;;
22924;SDS011;11628;51.072;3.712;2022-12-18T08:36:14;22.98;;;16.77;;
22924;SDS011;11628;51.072;3.712;2022-12-18T08:38:40;26.73;;;17.20;;
22924;SDS011;11628;51.072;3.712;2022-12-18T08:41:07;27.67;;;17.90;;
22924;SDS011;11628;51.072;3.712;2022-12-18T08:43:35;26.05;;;17.92;;
22924;SDS011;11628;51.072;3.712;2022-12-18T08:46:19;26.10;;;16.55;;
22924;SDS011;11628;51.072;3.712;2022-12-18T08:48:46;26.52;;;16.80;;
22924;SDS011;11628;51.072;3.712;2022-12-18T08:51:12;27.27;;;17.98;;
22924;SDS011;11628;51.072;3.712;2022-12-18T08:53:38;23.50;;;15.77;;
22924;SDS011;11628;51.072;3.712;2022-12-18T08:56:04;26.50;;;17.20;;
22924;SDS011;11628;51.072;3.712;2022-12-18T08:58:30;23.52;;;16.10;;
22924;SDS011;11628;51.072;3.712;2022-12-18T09:00:59;24.15;;;16.67;;
22924;SDS011;11628;51.072;3.712;2022-12-18T09:03:26;24.80;;;16.90;;
22924;SDS011;11628;51.072;3.712;2022-12-18T09:05:52;25.50;;;17.05;;
22924;SDS011;11628;51.072;3.712;2022-12-18T09:08:18;27.48;;;16.92;;
22924;SDS011;11628;51.072;3.712;2022-12-18T09:10:44;26.15;;;17.65;;
22924;SDS011;11628;51.072;3.712;2022-12-18T09:13:12;27.58;;;17.60;;
22924;SDS011;11628;51.072;3.712;2022-12-18T09:15:42;26.35;;;17.55;;
22924;SDS011;11628;51.072;3.712;2022-12-18T09:18:13;26.20;;;17.45;;
22924;SDS011;11628;51.072;3.712;2022-12-18T09:20:40;25.83;;;16.90;;
22924;SDS011;11628;51.072;3.712;2022-12-18T09:23:06;29.70;;;16.98;;
22924;SDS011;11628;51.072;3.712;2022-12-18T09:25:33;22.77;;;16.38;;
22924;SDS011;11628;51.072;3.712;2022-12-18T09:28:03;23.63;;;16.10;;
22924;SDS011;11628;51.072;3.712;2022-12-18T09:30:30;20.60;;;15.18;;
22924;SDS011;11628;51.072;3.712;2022-12-18T09:32:58;25.27;;;16.33;;
22924;SDS011;11628;51.072;3.712;2022-12-18T09:35:24;22.90;;;16.05;;
22924;SDS011;11628;51.072;3.712;2022-12-18T09:37:50;24.58;;;16.17;;
22924;SDS011;11628;51.072;3.712;2022-12-18T09:40:16;25.50;;;15.70;;
22924;SDS011;11628;51.072;3.712;2022-12-18T09:42:45;22.52;;;15.55;;
22924;SDS011;11628;51.072;3.712;2022-12-18T09:45:21;23.58;;;16.83;;
22924;SDS011;11628;51.072;3.712;2022-12-18T09:47:48;22.38;;;15.88;;
22924;SDS011;11628;51.072;3.712;2022-12-18T09:50:24;24.40;;;16.20;;
22924;SDS011;11628;51.072;3.712;2022-12-18T09:52:59;22.83;;;15.63;;
22924;SDS011;11628;51.072;3.712;2022-12-18T09:55:34;25.55;;;15.60;;
22924;SDS011;11628;51.072;3.712;2022-12-18T09:58:10;20.27;;;13.85;;
22924;SDS011;11628;51.072;3.712;2022-12-18T10:00:53;27.38;;;17.27;;
22924;SDS011;11628;51.072;3.712;2022-12-18T10:03:19;22.40;;;15.30;;
22924;SDS011;11628;51.072;3.712;2022-12-18T10:14:30;24.20;;;15.98;;
22924;SDS011;11628;51.072;3.712;2022-12-18T10:17:47;22.42;;;15.88;;
22924;SDS011;11628;51.072;3.712;2022-12-18T10:19:56;24.88;;;16.60;;
22924;SDS011;11628;51.072;3.712;2022-12-18T10:22:51;26.50;;;16.70;;
22924;SDS011;11628;51.072;3.712;2022-12-18T10:28:32;25.65;;;16.80;;
22924;SDS011;11628;51.072;3.712;2022-12-18T10:31:01;24.90;;;16.38;;
22924;SDS011;11628;51.072;3.712;2022-12-18T10:33:28;25.65;;;17.10;;
22924;SDS011;11628;51.072;3.712;2022-12-18T10:35:56;25.92;;;16.48;;
22924;SDS011;11628;51.072;3.712;2022-12-18T10:38:23;24.77;;;16.00;;
22924;SDS011;11628;51.072;3.712;2022-12-18T10:43:22;22.58;;;15.63;;
22924;SDS011;11628;51.072;3.712;2022-12-18T10:45:57;23.38;;;16.50;;
22924;SDS011;11628;51.072;3.712;2022-12-18T10:48:27;23.67;;;17.10;;
22924;SDS011;11628;51.072;3.712;2022-12-18T10:50:53;24.27;;;16.52;;
22924;SDS011;11628;51.072;3.712;2022-12-18T10:53:22;26.63;;;17.45;;
22924;SDS011;11628;51.072;3.712;2022-12-18T10:55:50;24.13;;;16.63;;
22924;SDS011;11628;51.072;3.712;2022-12-18T10:58:26;26.08;;;17.27;;
22924;SDS011;11628;51.072;3.712;2022-12-18T11:03:40;26.50;;;17.13;;
22924;SDS011;11628;51.072;3.712;2022-12-18T11:06:07;24.98;;;17.60;;
22924;SDS011;11628;51.072;3.712;2022-12-18T11:08:38;27.05;;;17.38;;
22924;SDS011;11628;51.072;3.712;2022-12-18T11:11:04;27.13;;;17.42;;
22924;SDS011;11628;51.072;3.712;2022-12-18T11:13:55;25.38;;;17.38;;
22924;SDS011;11628;51.072;3.712;2022-12-18T11:16:28;23.50;;;15.65;;
22924;SDS011;11628;51.072;3.712;2022-12-18T11:19:09;26.33;;;17.80;;
22924;SDS011;11628;51.072;3.712;2022-12-18T11:21:55;23.15;;;16.85;;
22924;SDS011;11628;51.072;3.712;2022-12-18T11:24:34;26.83;;;17.05;;
22924;SDS011;11628;51.072;3.712;2022-12-18T11:27:01;25.92;;;17.40;;
22924;SDS011;11628;51.072;3.712;2022-12-18T11:29:36;24.48;;;17.45;;
22924;SDS011;11628;51.072;3.712;2022-12-18T11:35:17;30.02;;;19.60;;
22924;SDS011;11628;51.072;3.712;2022-12-18T11:37:48;26.75;;;17.48;;
22924;SDS011;11628;51.072;3.712;2022-12-18T11:40:25;25.58;;;17.30;;
22924;SDS011;11628;51.072;3.712;2022-12-18T11:42:59;28.63;;;18.65;;
22924;SDS011;11628;51.072;3.712;2022-12-18T11:45:35;23.45;;;16.60;;
22924;SDS011;11628;51.072;3.712;2022-12-18T11:48:32;28.90;;;18.47;;
22924;SDS011;11628;51.072;3.712;2022-12-18T11:51:09;26.35;;;17.38;;
22924;SDS011;11628;51.072;3.712;2022-12-18T11:53:39;30.00;;;18.20;;
22924;SDS011;11628;51.072;3.712;2022-12-18T11:58:44;20.63;;;14.95;;
22924;SDS011;11628;51.072;3.712;2022-12-18T12:03:55;24.48;;;16.65;;
22924;SDS011;11628;51.072;3.712;2022-12-18T12:14:44;24.52;;;15.48;;
22924;SDS011;11628;51.072;3.712;2022-12-18T12:20:44;25.20;;;15.80;;
22924;SDS011;11628;51.072;3.712;2022-12-18T12:25:59;27.75;;;16.50;;
22924;SDS011;11628;51.072;3.712;2022-12-18T12:39:23;24.88;;;16.20;;
22924;SDS011;11628;51.072;3.712;2022-12-18T12:42:03;27.27;;;16.90;;
22924;SDS011;11628;51.072;3.712;2022-12-18T12:44:53;28.30;;;18.83;;
22924;SDS011;11628;51.072;3.712;2022-12-18T12:47:25;27.02;;;18.67;;
22924;SDS011;11628;51.072;3.712;2022-12-18T12:49:54;27.40;;;17.63;;
22924;SDS011;11628;51.072;3.712;2022-12-18T12:54:57;32.35;;;19.15;;
22924;SDS011;11628;51.072;3.712;2022-12-18T12:57:34;30.40;;;19.15;;
22924;SDS011;11628;51.072;3.712;2022-12-18T13:00:17;28.08;;;18.52;;
22924;SDS011;11628;51.072;3.712;2022-12-18T13:08:04;27.38;;;18.13;;
22924;SDS011;11628;51.072;3.712;2022-12-18T13:10:39;29.10;;;18.92;;
22924;SDS011;11628;51.072;3.712;2022-12-18T13:20:34;34.90;;;21.15;;
22924;SDS011;11628;51.072;3.712;2022-12-18T13:23:01;32.50;;;19.95;;
22924;SDS011;11628;51.072;3.712;2022-12-18T13:25:44;32.30;;;20.20;;
22924;SDS011;11628;51.072;3.712;2022-12-18T13:28:16;34.40;;;21.25;;
22924;SDS011;11628;51.072;3.712;2022-12-18T13:38:25;40.33;;;26.50;;
22924;SDS011;11628;51.072;3.712;2022-12-18T13:46:18;34.70;;;21.70;;
22924;SDS011;11628;51.072;3.712;2022-12-18T13:48:51;35.70;;;21.35;;
22924;SDS011;11628;51.072;3.712;2022-12-18T13:51:23;36.58;;;22.27;;
22924;SDS011;11628;51.072;3.712;2022-12-18T13:53:51;33.13;;;21.33;;
22924;SDS011;11628;51.072;3.712;2022-12-18T13:56:27;35.60;;;22.05;;
22924;SDS011;11628;51.072;3.712;2022-12-18T14:01:55;34.67;;;20.90;;
22924;SDS011;11628;51.072;3.712;2022-12-18T14:06:57;39.33;;;23.08;;
22924;SDS011;11628;51.072;3.712;2022-12-18T14:09:30;41.45;;;23.75;;
22924;SDS011;11628;51.072;3.712;2022-12-18T14:12:00;36.40;;;22.92;;
22924;SDS011;11628;51.072;3.712;2022-12-18T14:14:46;36.95;;;22.80;;
22924;SDS011;11628;51.072;3.712;2022-12-18T14:17:14;36.20;;;22.60;;
22924;SDS011;11628;51.072;3.712;2022-12-18T14:19:41;39.58;;;22.90;;
22924;SDS011;11628;51.072;3.712;2022-12-18T14:22:16;41.22;;;24.80;;
22924;SDS011;11628;51.072;3.712;2022-12-18T14:27:42;42.10;;;25.52;;
22924;SDS011;11628;51.072;3.712;2022-12-18T14:30:24;41.70;;;23.65;;
22924;SDS011;11628;51.072;3.712;2022-12-18T14:33:13;39.83;;;21.92;;
22924;SDS011;11628;51.072;3.712;2022-12-18T14:35:51;39.05;;;21.58;;
22924;SDS011;11628;51.072;3.712;2022-12-18T14:38:24;39.47;;;22.55;;
22924;SDS011;11628;51.072;3.712;2022-12-18T14:40:56;40.30;;;21.75;;
22924;SDS011;11628;51.072;3.712;2022-12-18T14:43:23;39.20;;;23.60;;
22924;SDS011;11628;51.072;3.712;2022-12-18T14:45:49;41.20;;;23.40;;
22924;SDS011;11628;51.072;3.712;2022-12-18T14:48:20;42.85;;;25.08;;
22924;SDS011;11628;51.072;3.712;2022-12-18T14:51:01;38.45;;;23.33;;
22924;SDS011;11628;51.072;3.712;2022-12-18T14:53:40;40.13;;;22.83;;
22924;SDS011;11628;51.072;3.712;2022-12-18T14:56:19;38.70;;;23.15;;
22924;SDS011;11628;51.072;3.712;2022-12-18T15:01:18;38.35;;;23.05;;
22924;SDS011;11628;51.072;3.712;2022-12-18T15:03:49;38.60;;;23.25;;
22924;SDS011;11628;51.072;3.712;2022-12-18T15:06:37;37.90;;;21.77;;
22924;SDS011;11628;51.072;3.712;2022-12-18T15:09:26;40.78;;;21.92;;
22924;SDS011;11628;51.072;3.712;2022-12-18T15:11:55;39.72;;;22.33;;
22924;SDS011;11628;51.072;3.712;2022-12-18T15:14:38;39.75;;;22.90;;
22924;SDS011;11628;51.072;3.712;2022-12-18T15:17:17;39.20;;;22.90;;
22924;SDS011;11628;51.072;3.712;2022-12-18T15:19:47;40.10;;;22.38;;
22924;SDS011;11628;51.072;3.712;2022-12-18T15:22:27;36.95;;;20.50;;
22924;SDS011;11628;51.072;3.712;2022-12-18T15:24:55;46.75;;;25.00;;
22924;SDS011;11628;51.072;3.712;2022-12-18T15:27:27;44.05;;;25.98;;
22924;SDS011;11628;51.072;3.712;2022-12-18T15:30:21;41.78;;;23.52;;
22924;SDS011;11628;51.072;3.712;2022-12-18T15:32:50;42.38;;;23.75;;
22924;SDS011;11628;51.072;3.712;2022-12-18T15:35:23;42.03;;;21.85;;
22924;SDS011;11628;51.072;3.712;2022-12-18T15:37:50;40.50;;;21.92;;
22924;SDS011;11628;51.072;3.712;2022-12-18T15:40:21;38.53;;;23.33;;
22924;SDS011;11628;51.072;3.712;2022-12-18T15:42:51;37.33;;;22.75;;
22924;SDS011;11628;51.072;3.712;2022-12-18T15:45:37;42.50;;;24.23;;
22924;SDS011;11628;51.072;3.712;2022-12-18T15:48:16;42.40;;;23.67;;
22924;SDS011;11628;51.072;3.712;2022-12-18T15:50:46;41.15;;;23.50;;
22924;SDS011;11628;51.072;3.712;2022-12-18T15:53:11;39.60;;;22.40;;
22924;SDS011;11628;51.072;3.712;2022-12-18T15:55:37;39.20;;;24.08;;
22924;SDS011;11628;51.072;3.712;2022-12-18T15:58:21;40.38;;;23.77;;
22924;SDS011;11628;51.072;3.712;2022-12-18T16:00:47;42.75;;;22.92;;
22924;SDS011;11628;51.072;3.712;2022-12-18T16:03:13;40.65;;;23.85;;
22924;SDS011;11628;51.072;3.712;2022-12-18T16:05:39;37.85;;;22.67;;
22924;SDS011;11628;51.072;3.712;2022-12-18T16:08:04;40.58;;;23.80;;
22924;SDS011;11628;51.072;3.712;2022-12-18T16:10:30;43.17;;;24.77;;
22924;SDS011;11628;51.072;3.712;2022-12-18T16:12:56;39.90;;;23.23;;
22924;SDS011;11628;51.072;3.712;2022-12-18T16:15:21;41.75;;;23.27;;
22924;SDS011;11628;51.072;3.712;2022-12-18T16:17:47;42.50;;;24.60;;
22924;SDS011;11628;51.072;3.712;2022-12-18T16:20:17;38.67;;;21.98;;
22924;SDS011;11628;51.072;3.712;2022-12-18T16:22:45;41.08;;;22.08;;
22924;SDS011;11628;51.072;3.712;2022-12-18T16:27:48;38.47;;;22.35;;
22924;SDS011;11628;51.072;3.712;2022-12-18T16:30:15;39.15;;;23.52;;
22924;SDS011;11628;51.072;3.712;2022-12-18T16:32:42;39.05;;;21.75;;
22924;SDS011;11628;51.072;3.712;2022-12-18T16:35:09;38.97;;;21.42;;